Time;durP1;ratioP1;P1;durP2;ratioP2;P2;SDS_P1;SDS_P2;PMS_P1;PMS_P2;Temp;Humidity;BMP_temperature;BMP_pressure;BME280_temperature;BME280_humidity;BME280_pressure;Samples;Min_cycle;Max_cycle;Signal;HPM_P1;HPM_P2
2022/05/14 00:00:06;;;;;;;0.40;0.40;;;12.10;99.90;;;;;;5096364;28;20438;-67
2022/05/14 00:02:55;;;;;;;0.70;0.70;;;12.10;99.90;;;;;;5095193;28;20454;-66
2022/05/14 00:05:44;;;;;;;0.40;0.40;;;12.10;99.90;;;;;;5096191;28;20429;-67
2022/05/14 00:08:33;;;;;;;0.40;0.40;;;12.00;99.90;;;;;;5099768;28;20438;-67
2022/05/14 00:14:29;;;;;;;0.40;0.40;;;11.90;99.90;;;;;;5110944;28;20429;-67
2022/05/14 00:17:17;;;;;;;0.50;0.50;;;11.90;99.90;;;;;;5107911;28;20843;-67
2022/05/14 00:20:06;;;;;;;0.40;0.40;;;11.90;99.90;;;;;;5103979;28;20427;-67
2022/05/14 00:22:54;;;;;;;0.40;0.40;;;11.80;99.90;;;;;;5109875;28;20466;-67
2022/05/14 00:25:43;;;;;;;0.40;0.40;;;11.80;99.90;;;;;;5096343;28;20444;-66
2022/05/14 00:28:32;;;;;;;0.50;0.50;;;11.70;99.90;;;;;;5096932;28;20437;-66
2022/05/14 00:31:21;;;;;;;0.43;0.43;;;11.70;99.90;;;;;;5096026;28;20439;-66
2022/05/14 00:34:09;;;;;;;0.40;0.40;;;11.70;99.90;;;;;;5097200;28;20446;-66
2022/05/14 00:37:00;;;;;;;0.40;0.40;;;11.70;99.90;;;;;;5095982;28;20960;-66
2022/05/14 00:39:48;;;;;;;0.40;0.40;;;11.70;99.90;;;;;;5094814;28;20423;-66
2022/05/14 00:42:36;;;;;;;0.40;0.40;;;11.90;99.90;;;;;;5095035;28;20466;-67
2022/05/14 00:45:24;;;;;;;0.40;0.40;;;12.00;99.90;;;;;;5096294;28;20470;-67
2022/05/14 00:48:14;;;;;;;0.40;0.40;;;12.00;99.90;;;;;;5096121;28;20418;-67
2022/05/14 00:51:03;;;;;;;0.40;0.40;;;12.20;99.90;;;;;;5094839;28;20950;-67
2022/05/14 00:53:54;;;;;;;0.40;0.40;;;12.20;99.90;;;;;;5095321;28;20422;-67
2022/05/14 00:56:47;;;;;;;0.50;0.50;;;12.30;99.90;;;;;;5095215;28;20427;-67
2022/05/14 00:59:37;;;;;;;0.40;0.40;;;12.30;99.90;;;;;;5094998;28;20429;-67
2022/05/14 01:02:25;;;;;;;0.40;0.40;;;;;;;;;;5095342;28;20494;-67
2022/05/14 01:05:17;;;;;;;0.50;0.50;;;12.50;99.90;;;;;;5095278;28;20790;-67
2022/05/14 01:08:06;;;;;;;0.40;0.40;;;12.50;99.90;;;;;;5094368;28;20495;-67
2022/05/14 01:10:54;;;;;;;1.00;0.90;;;12.60;99.90;;;;;;5093694;28;20425;-68
2022/05/14 01:13:42;;;;;;;0.40;0.40;;;12.80;99.90;;;;;;5094353;28;20847;-67
2022/05/14 01:16:30;;;;;;;1.77;1.37;;;12.70;99.90;;;;;;5093931;28;20426;-67
2022/05/14 01:19:19;;;;;;;0.40;0.40;;;12.70;99.90;;;;;;5095042;28;20445;-67
2022/05/14 01:22:24;;;;;;;0.50;0.50;;;12.70;99.90;;;;;;5094015;28;20449;-67
2022/05/14 01:28:25;;;;;;;0.80;0.80;;;12.80;99.90;;;;;;5094468;28;20475;-67
2022/05/14 01:31:14;;;;;;;0.50;0.50;;;12.80;99.90;;;;;;5094131;28;20426;-67
2022/05/14 01:34:05;;;;;;;0.50;0.50;;;12.80;99.90;;;;;;5095034;28;20509;-67
2022/05/14 01:36:55;;;;;;;0.50;0.50;;;12.90;99.90;;;;;;5082330;28;20434;-67
2022/05/14 01:39:43;;;;;;;0.40;0.40;;;12.90;99.90;;;;;;5074279;28;20430;-67
2022/05/14 01:42:31;;;;;;;1.17;1.07;;;12.90;99.90;;;;;;5074782;28;20467;-67
2022/05/14 01:45:21;;;;;;;0.40;0.40;;;12.90;99.90;;;;;;5074090;28;20443;-67
2022/05/14 01:48:09;;;;;;;0.40;0.40;;;13.00;99.90;;;;;;5075322;28;20419;-67
2022/05/14 01:50:57;;;;;;;0.97;0.83;;;13.00;99.90;;;;;;5075345;28;20423;-67
2022/05/14 01:53:46;;;;;;;0.60;0.60;;;13.10;99.90;;;;;;5066938;28;20807;-66
2022/05/14 01:56:34;;;;;;;0.70;0.70;;;13.10;99.90;;;;;;5072356;28;20426;-67
2022/05/14 01:59:23;;;;;;;0.40;0.40;;;13.10;99.90;;;;;;5075129;28;20439;-66
2022/05/14 02:02:13;;;;;;;0.40;0.40;;;13.00;99.90;;;;;;5073880;28;20599;-66
2022/05/14 02:05:01;;;;;;;0.40;0.40;;;13.10;99.90;;;;;;5073788;28;20800;-66
2022/05/14 02:07:49;;;;;;;0.50;0.50;;;13.00;99.90;;;;;;5074967;28;20423;-66
2022/05/14 02:10:37;;;;;;;0.40;0.40;;;13.20;99.90;;;;;;5074590;28;20974;-67
2022/05/14 02:13:26;;;;;;;0.60;0.60;;;13.10;99.90;;;;;;5074949;28;20486;-66
2022/05/14 02:16:14;;;;;;;1.90;1.03;;;13.10;99.90;;;;;;5075463;28;20443;-66
2022/05/14 02:19:05;;;;;;;0.40;0.40;;;13.20;99.90;;;;;;5074189;28;20428;-66
2022/05/14 02:21:53;;;;;;;0.40;0.40;;;13.10;99.90;;;;;;5075477;28;20764;-66
2022/05/14 02:24:41;;;;;;;0.40;0.40;;;13.20;99.90;;;;;;5074590;28;20463;-66
2022/05/14 02:27:29;;;;;;;0.40;0.40;;;13.10;99.90;;;;;;5073073;28;20939;-66
2022/05/14 02:30:17;;;;;;;0.40;0.40;;;13.10;99.90;;;;;;5074942;28;20420;-67
2022/05/14 02:33:05;;;;;;;0.40;0.40;;;13.10;99.90;;;;;;5072907;28;20962;-66
2022/05/14 02:35:55;;;;;;;0.40;0.40;;;13.10;99.90;;;;;;5077415;28;20430;-66
2022/05/14 02:38:43;;;;;;;0.53;0.53;;;13.10;99.90;;;;;;5094862;28;20430;-66
2022/05/14 02:41:31;;;;;;;0.70;0.70;;;13.10;99.90;;;;;;5093637;28;20461;-66
2022/05/14 02:44:19;;;;;;;1.13;1.00;;;13.00;99.90;;;;;;5094673;28;21001;-66
2022/05/14 02:47:08;;;;;;;0.87;0.87;;;13.00;99.90;;;;;;5093986;28;20510;-66
2022/05/14 02:49:56;;;;;;;0.40;0.40;;;13.00;99.90;;;;;;5093022;28;20843;-66
2022/05/14 02:52:45;;;;;;;0.40;0.40;;;13.10;99.90;;;;;;5094332;28;20442;-66
2022/05/14 02:55:33;;;;;;;0.40;0.40;;;13.10;99.90;;;;;;5097054;28;20426;-68
2022/05/14 03:01:24;;;;;;;0.40;0.40;;;13.00;99.90;;;;;;5101843;28;20438;-67
2022/05/14 03:04:12;;;;;;;0.40;0.40;;;13.00;99.90;;;;;;5103949;28;20981;-67
2022/05/14 03:07:00;;;;;;;0.50;0.50;;;13.00;99.90;;;;;;5101710;28;20414;-67
2022/05/14 03:09:50;;;;;;;0.40;0.40;;;13.10;99.90;;;;;;5108131;28;20434;-66
2022/05/14 03:12:38;;;;;;;0.40;0.40;;;12.90;99.90;;;;;;5106798;28;20527;-66
2022/05/14 03:15:27;;;;;;;0.80;0.80;;;12.90;99.90;;;;;;5098525;28;20425;-66
2022/05/14 03:18:15;;;;;;;0.40;0.40;;;12.80;99.90;;;;;;5097244;28;20969;-66
2022/05/14 03:21:03;;;;;;;0.40;0.40;;;12.70;99.90;;;;;;5095477;28;20444;-66
2022/05/14 03:23:51;;;;;;;0.40;0.40;;;12.40;99.90;;;;;;5095866;28;20870;-65
2022/05/14 03:26:42;;;;;;;0.63;0.63;;;12.40;99.90;;;;;;5096267;28;20513;-66
2022/05/14 03:29:30;;;;;;;0.40;0.40;;;12.30;99.90;;;;;;5096659;28;20427;-66
2022/05/14 03:32:19;;;;;;;0.50;0.50;;;12.40;99.90;;;;;;5097461;28;20454;-66
2022/05/14 03:35:08;;;;;;;0.50;0.50;;;12.20;99.90;;;;;;5096320;28;20934;-66
2022/05/14 03:37:57;;;;;;;0.40;0.40;;;12.00;99.90;;;;;;5056504;28;20431;-66
2022/05/14 03:40:45;;;;;;;0.40;0.40;;;12.00;99.90;;;;;;5057281;28;20438;-66
2022/05/14 03:43:35;;;;;;;1.13;0.90;;;11.90;99.90;;;;;;5056720;28;20472;-66
2022/05/14 03:46:23;;;;;;;0.40;0.40;;;11.90;99.90;;;;;;5056567;28;20531;-66
2022/05/14 03:49:12;;;;;;;0.40;0.40;;;11.80;99.90;;;;;;5055895;28;20424;-66
2022/05/14 03:52:01;;;;;;;0.40;0.40;;;11.80;99.90;;;;;;5066954;28;20438;-67
2022/05/14 03:54:50;;;;;;;0.50;0.50;;;11.80;99.90;;;;;;5106901;28;20420;-67
2022/05/14 03:57:38;;;;;;;0.50;0.50;;;11.80;99.90;;;;;;5112192;28;20475;-67
2022/05/14 04:00:27;;;;;;;0.40;0.40;;;11.70;99.90;;;;;;5109143;28;20442;-66
2022/05/14 04:03:16;;;;;;;0.40;0.40;;;11.70;99.90;;;;;;5089451;28;20459;-67
2022/05/14 04:06:05;;;;;;;0.40;0.40;;;11.70;99.90;;;;;;5089819;28;20423;-67
2022/05/14 04:08:53;;;;;;;1.47;1.37;;;11.70;99.90;;;;;;5088614;28;20991;-67
2022/05/14 04:11:41;;;;;;;0.40;0.40;;;11.80;99.90;;;;;;5077525;28;20455;-67
2022/05/14 04:14:29;;;;;;;0.40;0.40;;;11.70;99.90;;;;;;5077084;28;20438;-67
2022/05/14 04:17:19;;;;;;;1.00;0.90;;;11.80;99.90;;;;;;5076954;28;20477;-67
2022/05/14 04:20:08;;;;;;;0.63;0.63;;;11.80;99.90;;;;;;5074985;28;20509;-67
2022/05/14 04:22:56;;;;;;;0.43;0.43;;;11.80;99.90;;;;;;5077154;28;20883;-67
2022/05/14 04:25:45;;;;;;;0.40;0.40;;;11.80;99.90;;;;;;5075667;28;20477;-67
2022/05/14 04:28:33;;;;;;;0.40;0.40;;;11.90;99.90;;;;;;5075555;28;20435;-66
2022/05/14 04:31:22;;;;;;;0.50;0.50;;;11.90;99.90;;;;;;5075469;28;20734;-67
2022/05/14 04:34:11;;;;;;;0.40;0.40;;;11.80;99.90;;;;;;5075812;28;20784;-67
2022/05/14 04:36:59;;;;;;;0.40;0.40;;;12.00;99.90;;;;;;5088518;28;20473;-67
2022/05/14 04:39:49;;;;;;;0.40;0.40;;;11.90;99.90;;;;;;5095826;28;20523;-67
2022/05/14 04:42:38;;;;;;;0.40;0.40;;;12.00;99.90;;;;;;5106916;22;21072;-70
2022/05/14 04:45:26;;;;;;;0.70;0.60;;;12.10;99.90;;;;;;5073542;28;20455;-69
2022/05/14 04:48:15;;;;;;;0.60;0.60;;;12.10;99.90;;;;;;5073667;28;20430;-70
2022/05/14 04:51:05;;;;;;;0.50;0.50;;;12.20;99.90;;;;;;5073777;28;20423;-71
2022/05/14 04:53:53;;;;;;;0.60;0.60;;;12.20;99.90;;;;;;5053432;28;20435;-70
2022/05/14 04:56:41;;;;;;;0.40;0.40;;;12.20;99.90;;;;;;5053506;28;20428;-69
2022/05/14 04:59:29;;;;;;;0.50;0.50;;;12.30;99.90;;;;;;5052996;28;20431;-67
2022/05/14 05:05:23;;;;;;;0.70;0.70;;;12.50;99.90;;;;;;5053663;28;20466;-68
2022/05/14 05:08:12;;;;;;;0.40;0.40;;;12.50;99.90;;;;;;5053559;28;20454;-69
2022/05/14 05:11:00;;;;;;;0.50;0.50;;;12.50;99.90;;;;;;5053224;28;20474;-70
2022/05/14 05:13:49;;;;;;;0.50;0.50;;;12.60;99.90;;;;;;5052655;28;20859;-68
2022/05/14 05:16:37;;;;;;;0.50;0.50;;;12.70;99.90;;;;;;5052717;28;20435;-68
2022/05/14 05:19:25;;;;;;;1.57;0.97;;;12.80;99.90;;;;;;5053699;28;20431;-69
2022/05/14 05:22:13;;;;;;;0.50;0.50;;;12.80;99.90;;;;;;5052952;28;20525;-70
2022/05/14 05:25:03;;;;;;;0.40;0.40;;;12.90;99.90;;;;;;5053073;28;20471;-71
2022/05/14 05:27:57;;;;;;;0.50;0.50;;;13.00;99.90;;;;;;5054302;28;20542;-69
2022/05/14 05:30:45;;;;;;;1.47;1.17;;;13.10;99.90;;;;;;5053207;28;20420;-70
2022/05/14 05:33:36;;;;;;;0.70;0.70;;;13.30;99.90;;;;;;5053476;28;20440;-71
2022/05/14 05:36:24;;;;;;;0.60;0.60;;;13.30;99.90;;;;;;5060946;28;20893;-70
2022/05/14 05:39:12;;;;;;;1.13;1.03;;;13.40;99.90;;;;;;5072335;28;20419;-70
2022/05/14 05:42:01;;;;;;;0.80;0.80;;;13.50;99.90;;;;;;5074311;28;20532;-68
2022/05/14 05:44:49;;;;;;;2.40;2.10;;;13.70;99.90;;;;;;5073321;28;20879;-69
2022/05/14 05:47:38;;;;;;;2.63;2.43;;;13.80;99.90;;;;;;5073064;28;20430;-69
2022/05/14 05:50:26;;;;;;;0.50;0.50;;;14.20;99.90;;;;;;5072290;28;20451;-69
2022/05/14 05:53:16;;;;;;;0.50;0.50;;;14.30;99.90;;;;;;5070759;28;20443;-68
2022/05/14 05:59:12;;;;;;;1.70;1.60;;;14.80;99.90;;;;;;5071916;28;20477;-68
2022/05/14 06:02:00;;;;;;;1.13;0.80;;;15.20;99.90;;;;;;5072855;28;20443;-70
2022/05/14 06:04:48;;;;;;;0.40;0.40;;;15.10;99.90;;;;;;5072498;28;20291;-68
2022/05/14 06:07:37;;;;;;;0.40;0.40;;;15.10;99.90;;;;;;5072434;28;20250;-69
2022/05/14 06:10:25;;;;;;;0.43;0.43;;;15.20;99.90;;;;;;5071978;28;20197;-69
2022/05/14 06:13:14;;;;;;;0.40;0.40;;;15.10;99.90;;;;;;5071463;28;20228;-69
2022/05/14 06:16:04;;;;;;;1.20;1.10;;;15.20;99.90;;;;;;5073156;28;20419;-68
2022/05/14 06:18:52;;;;;;;0.70;0.60;;;15.50;99.90;;;;;;5071632;28;20212;-71
2022/05/14 06:21:41;;;;;;;0.50;0.50;;;15.60;99.90;;;;;;5072698;28;20671;-69
2022/05/14 06:24:29;;;;;;;0.60;0.60;;;15.50;99.90;;;;;;5072042;28;20200;-68
2022/05/14 06:27:17;;;;;;;0.40;0.40;;;15.60;99.90;;;;;;5073053;28;20627;-69
2022/05/14 06:30:06;;;;;;;0.87;0.60;;;15.60;99.90;;;;;;5072481;28;20683;-68
2022/05/14 06:33:01;;;;;;;0.93;0.93;;;15.70;99.90;;;;;;5072275;28;20602;-69
2022/05/14 06:35:50;;;;;;;0.40;0.40;;;15.90;99.90;;;;;;5070641;28;20203;-72
2022/05/14 06:38:38;;;;;;;0.40;0.40;;;16.00;99.90;;;;;;5052511;28;20205;-71
2022/05/14 06:41:27;;;;;;;0.50;0.50;;;16.40;99.90;;;;;;5053075;28;20205;-69
2022/05/14 06:44:15;;;;;;;0.50;0.50;;;16.50;99.90;;;;;;5056316;28;20556;-69
2022/05/14 06:47:04;;;;;;;1.33;1.23;;;16.50;99.90;;;;;;5057082;28;20579;-68
2022/05/14 06:49:57;;;;;;;1.10;1.10;;;16.40;99.90;;;;;;5056668;28;20197;-69
2022/05/14 06:52:49;;;;;;;1.80;1.70;;;16.30;99.90;;;;;;5056457;28;20641;-71
2022/05/14 06:55:40;;;;;;;0.50;0.50;;;16.40;99.90;;;;;;5055771;28;20213;-71
2022/05/14 06:58:34;;;;;;;2.83;1.25;;;16.70;99.90;;;;;;5056263;28;20208;-70
2022/05/14 07:01:23;;;;;;;0.70;0.70;;;16.90;99.90;;;;;;5056692;28;20205;-69
2022/05/14 07:07:23;;;;;;;1.52;1.45;;;16.70;99.90;;;;;;5056652;28;20201;-70
2022/05/14 07:10:11;;;;;;;0.50;0.50;;;16.60;99.90;;;;;;5056335;28;20200;-70
2022/05/14 07:12:59;;;;;;;2.70;1.27;;;16.70;99.90;;;;;;5056352;28;20253;-70
2022/05/14 07:15:47;;;;;;;2.30;2.15;;;16.90;99.90;;;;;;5056558;28;20747;-70
2022/05/14 07:18:35;;;;;;;0.70;0.70;;;16.90;99.90;;;;;;5055481;28;20635;-72
2022/05/14 07:21:24;;;;;;;1.20;0.95;;;16.90;99.90;;;;;;5055251;28;20212;-70
2022/05/14 07:24:15;;;;;;;7.53;2.67;;;16.70;99.90;;;;;;5055389;28;20549;-69
2022/05/14 07:27:04;;;;;;;0.60;0.60;;;16.70;99.90;;;;;;5055101;28;20225;-69
2022/05/14 07:29:52;;;;;;;2.80;1.23;;;16.70;99.90;;;;;;5055541;28;20223;-68
2022/05/14 07:32:40;;;;;;;0.80;0.73;;;16.90;99.90;;;;;;5055419;28;20234;-68
2022/05/14 07:35:29;;;;;;;0.60;0.60;;;17.10;99.90;;;;;;5055753;28;20201;-69
2022/05/14 07:38:17;;;;;;;1.95;1.02;;;17.20;99.90;;;;;;5035948;28;20194;-69
2022/05/14 07:41:07;;;;;;;0.40;0.40;;;17.50;99.90;;;;;;5034573;28;20205;-71
2022/05/14 07:43:58;;;;;;;0.77;0.77;;;17.60;99.90;;;;;;5033552;28;20206;-69
2022/05/14 07:46:49;;;;;;;0.50;0.50;;;17.70;99.90;;;;;;5034472;28;20248;-73
2022/05/14 07:49:38;;;;;;;0.65;0.65;;;17.60;99.90;;;;;;5034895;28;20213;-69
2022/05/14 07:52:27;;;;;;;0.40;0.40;;;17.70;99.90;;;;;;5033203;28;20225;-71
2022/05/14 07:55:15;;;;;;;0.50;0.50;;;17.80;99.90;;;;;;5033753;28;20612;-71
2022/05/14 07:58:05;;;;;;;0.70;0.70;;;17.90;99.90;;;;;;5034554;28;20212;-70
2022/05/14 08:00:54;;;;;;;0.88;0.77;;;18.10;99.90;;;;;;5034256;28;20915;-72
2022/05/14 08:03:43;;;;;;;0.55;0.55;;;18.10;99.90;;;;;;5034737;28;20293;-68
2022/05/14 08:06:31;;;;;;;1.52;1.02;;;18.20;99.90;;;;;;5035091;28;20340;-70
2022/05/14 08:09:19;;;;;;;0.60;0.60;;;18.30;99.90;;;;;;5033655;28;20705;-73
2022/05/14 08:12:08;;;;;;;0.60;0.60;;;18.60;99.90;;;;;;5032932;28;20287;-71
2022/05/14 08:14:57;;;;;;;0.55;0.55;;;18.90;99.90;;;;;;5033577;28;20210;-73
2022/05/14 08:17:46;;;;;;;0.73;0.73;;;18.80;99.90;;;;;;5033852;28;20194;-70
2022/05/14 08:20:35;;;;;;;0.75;0.75;;;18.80;99.90;;;;;;5033608;28;20241;-67
2022/05/14 08:26:29;;;;;;;0.60;0.60;;;19.00;99.90;;;;;;5033416;28;20213;-72
2022/05/14 08:29:18;;;;;;;0.40;0.40;;;19.30;99.90;;;;;;5034468;28;20244;-72
2022/05/14 08:32:08;;;;;;;1.45;1.35;;;19.40;99.90;;;;;;5031866;28;20225;-71
2022/05/14 08:34:57;;;;;;;2.83;2.67;;;19.60;99.90;;;;;;5032801;28;20595;-73
2022/05/14 08:37:46;;;;;;;1.52;0.70;;;19.70;99.90;;;;;;5070289;28;20246;-69
2022/05/14 08:40:38;;;;;;;0.50;0.50;;;19.80;99.90;;;;;;5073291;28;20220;-75
2022/05/14 08:43:31;;;;;;;3.30;1.92;;;19.60;99.90;;;;;;5071426;28;20231;-74
2022/05/14 08:46:23;;;;;;;1.05;0.95;;;19.60;99.90;;;;;;5072909;28;20220;-74
2022/05/14 08:49:20;;;;;;;1.17;0.90;;;19.50;99.90;;;;;;5071111;28;20211;-71
2022/05/14 08:52:18;;;;;;;0.40;0.40;;;19.50;99.90;;;;;;5072864;28;20262;-70
2022/05/14 08:55:09;;;;;;;1.58;1.15;;;19.80;99.90;;;;;;5071692;28;20259;-72
2022/05/14 08:58:07;;;;;;;0.40;0.40;;;20.00;99.90;;;;;;5071801;28;20634;-69
2022/05/14 09:00:57;;;;;;;0.40;0.40;;;20.10;99.90;;;;;;5072678;28;20208;-71
2022/05/14 09:03:46;;;;;;;1.25;1.15;;;20.30;99.90;;;;;;5071751;28;20297;-71
2022/05/14 09:06:35;;;;;;;0.82;0.82;;;20.00;99.90;;;;;;5071640;28;20595;-73
2022/05/14 09:09:24;;;;;;;0.40;0.40;;;19.60;99.90;;;;;;5071380;28;20200;-70
2022/05/14 09:12:16;;;;;;;1.25;1.10;;;19.30;99.90;;;;;;5071833;28;20274;-70
2022/05/14 09:15:12;;;;;;;0.63;0.63;;;19.00;99.90;;;;;;5072128;28;20258;-72
2022/05/14 09:18:06;;;;;;;2.03;1.08;;;18.90;99.90;;;;;;5073619;28;20212;-69
2022/05/14 09:20:57;;;;;;;1.42;1.23;;;18.60;99.90;;;;;;5073227;28;20669;-69
2022/05/14 09:23:53;;;;;;;1.02;0.70;;;18.40;99.90;;;;;;5073414;28;20267;-70
2022/05/14 09:26:43;;;;;;;0.70;0.70;;;18.40;99.90;;;;;;5072319;28;20704;-72
2022/05/14 09:29:38;;;;;;;1.33;1.23;;;18.30;99.90;;;;;;5072903;28;20224;-69
2022/05/14 09:32:31;;;;;;;0.98;0.98;;;18.30;99.90;;;;;;5073435;28;20296;-71
2022/05/14 09:35:24;;;;;;;1.98;1.75;;;18.50;99.90;;;;;;5072712;28;20201;-71
2022/05/14 09:38:20;;;;;;;1.02;0.60;;;18.60;99.90;;;;;;5032244;28;20205;-73
2022/05/14 09:41:18;;;;;;;0.40;0.40;;;18.50;99.90;;;;;;5033279;28;20554;-70
2022/05/14 09:44:08;;;;;;;0.50;0.50;;;18.50;99.90;;;;;;5033904;28;20325;-70
2022/05/14 09:47:08;;;;;;;1.10;1.10;;;18.50;99.90;;;;;;5033141;28;20217;-71
2022/05/14 09:49:59;;;;;;;0.77;0.77;;;18.90;99.90;;;;;;5032403;28;20203;-71
2022/05/14 09:52:57;;;;;;;2.05;1.30;;;19.10;99.90;;;;;;5032291;28;20222;-72
2022/05/14 09:56:07;;;;;;;0.40;0.40;;;19.00;99.90;;;;;;5032841;28;20208;-69
2022/05/14 09:59:06;;;;;;;1.63;1.08;;;18.90;99.90;;;;;;5031917;28;20288;-72
2022/05/14 10:01:59;;;;;;;0.52;0.52;;;19.00;99.90;;;;;;5032501;28;20352;-73
2022/05/14 10:05:00;;;;;;;1.23;1.02;;;19.00;99.90;;;;;;5031798;28;20236;-73
2022/05/14 10:07:52;;;;;;;1.17;1.13;;;19.20;99.90;;;;;;5032232;28;20698;-74
2022/05/14 10:10:48;;;;;;;1.35;1.20;;;19.40;99.90;;;;;;5031786;28;20280;-71
2022/05/14 10:13:42;;;;;;;0.88;0.80;;;19.50;99.90;;;;;;5030989;28;20245;-71
2022/05/14 10:16:37;;;;;;;0.60;0.60;;;19.40;99.90;;;;;;5031786;28;20229;-72
2022/05/14 10:19:51;;;;;;;4.93;2.17;;;19.40;99.90;;;;;;5036110;28;20202;-72
2022/05/14 10:29:20;;;;;;;0.85;0.85;;;20.30;99.90;;;;;;5035867;28;20206;-73
2022/05/14 10:32:13;;;;;;;0.40;0.40;;;20.50;99.90;;;;;;5035298;28;20272;-72
2022/05/14 10:35:09;;;;;;;0.40;0.40;;;20.60;99.90;;;;;;5035171;28;20209;-71
2022/05/14 10:38:02;;;;;;;0.50;0.50;;;20.60;99.90;;;;;;5035696;28;20194;-72
2022/05/14 10:40:56;;;;;;;2.03;1.65;;;20.80;99.70;;;;;;5035277;28;20205;-69
2022/05/14 10:43:50;;;;;;;0.40;0.40;;;20.90;98.50;;;;;;5035210;28;20230;-72
2022/05/14 10:46:41;;;;;;;1.52;1.42;;;20.60;99.10;;;;;;5035965;28;20694;-71
2022/05/14 10:49:36;;;;;;;0.77;0.77;;;20.90;98.80;;;;;;5035412;28;20194;-70
2022/05/14 10:52:25;;;;;;;0.50;0.50;;;20.70;99.30;;;;;;5033917;28;20280;-72
2022/05/14 10:55:18;;;;;;;1.48;1.05;;;20.90;98.80;;;;;;5035138;28;20694;-73
2022/05/14 10:58:08;;;;;;;1.00;0.80;;;21.00;98.10;;;;;;5034587;28;20195;-68
2022/05/14 11:00:56;;;;;;;0.80;0.80;;;20.90;97.80;;;;;;5035736;28;20217;-69
2022/05/14 11:03:50;;;;;;;1.08;0.98;;;21.00;97.80;;;;;;5034156;28;20222;-68
2022/05/14 11:06:54;;;;;;;0.50;0.50;;;21.00;98.60;;;;;;5034342;28;20581;-69
2022/05/14 11:09:44;;;;;;;1.27;1.27;;;20.80;98.40;;;;;;5034964;28;20233;-71
2022/05/14 11:12:34;;;;;;;0.60;0.57;;;20.80;98.10;;;;;;5034664;28;20694;-71
2022/05/14 11:15:25;;;;;;;1.58;1.48;;;21.00;98.50;;;;;;5034341;28;20237;-71
2022/05/14 11:18:15;;;;;;;0.68;0.68;;;21.10;98.00;;;;;;5034542;28;20198;-70
2022/05/14 11:21:04;;;;;;;0.57;0.57;;;21.00;98.40;;;;;;5034749;28;20212;-72
2022/05/14 11:23:59;;;;;;;0.68;0.68;;;21.10;98.00;;;;;;5034064;28;20224;-69
2022/05/14 11:26:50;;;;;;;1.80;0.88;;;21.10;97.90;;;;;;5034113;28;20199;-70
2022/05/14 11:29:50;;;;;;;2.40;2.03;;;21.20;97.70;;;;;;5034273;28;20205;-68
2022/05/14 11:32:46;;;;;;;1.15;1.10;;;20.90;97.80;;;;;;5034380;28;20230;-68
2022/05/14 11:35:39;;;;;;;0.40;0.40;;;20.80;98.00;;;;;;5034733;28;20202;-70
2022/05/14 11:38:33;;;;;;;0.50;0.50;;;21.00;98.40;;;;;;5074071;28;20197;-70
2022/05/14 11:41:31;;;;;;;0.50;0.50;;;21.30;97.70;;;;;;5074754;28;20200;-68
2022/05/14 11:44:36;;;;;;;0.40;0.40;;;21.60;96.90;;;;;;5074163;28;20193;-69
2022/05/14 11:47:50;;;;;;;0.70;0.70;;;21.60;96.20;;;;;;5074027;28;20220;-71
2022/05/14 11:50:48;;;;;;;0.70;0.70;;;21.20;96.80;;;;;;5073606;28;20197;-71
2022/05/14 11:53:42;;;;;;;1.25;0.73;;;21.10;96.90;;;;;;5073167;28;20720;-68
2022/05/14 11:56:36;;;;;;;0.40;0.40;;;21.20;97.10;;;;;;5074218;28;20223;-69
2022/05/14 11:59:31;;;;;;;2.05;1.58;;;21.50;97.30;;;;;;5072542;28;20199;-68
2022/05/14 12:02:24;;;;;;;0.77;0.50;;;21.90;96.50;;;;;;5073486;28;20228;-70
2022/05/14 12:05:16;;;;;;;1.30;1.10;;;21.90;96.20;;;;;;5072674;28;20285;-71
2022/05/14 12:08:36;;;;;;;9.80;2.55;;;21.70;96.70;;;;;;5072522;28;20714;-69
2022/05/14 12:11:35;;;;;;;0.40;0.40;;;21.50;96.10;;;;;;5073371;28;20200;-69
2022/05/14 12:14:30;;;;;;;3.42;1.35;;;21.50;96.80;;;;;;5072511;28;20703;-68
2022/05/14 12:17:21;;;;;;;0.93;0.93;;;21.80;96.20;;;;;;5073400;28;20749;-69
2022/05/14 12:20:10;;;;;;;0.70;0.70;;;22.00;95.20;;;;;;5072280;28;20280;-70
2022/05/14 12:23:02;;;;;;;1.50;1.40;;;22.10;95.00;;;;;;5072701;28;20227;-68
2022/05/14 12:25:51;;;;;;;1.10;1.00;;;22.30;95.50;;;;;;5073466;28;20193;-68
2022/05/14 12:28:43;;;;;;;0.80;0.68;;;22.00;95.10;;;;;;5072433;28;20378;-69
2022/05/14 12:34:40;;;;;;;0.50;0.50;;;21.70;94.60;;;;;;5072303;28;20672;-69
2022/05/14 12:37:34;;;;;;;31.10;2.25;;;22.00;94.70;;;;;;5056831;28;20205;-69
2022/05/14 12:40:27;;;;;;;1.77;0.80;;;22.00;94.50;;;;;;5052427;28;20681;-68
2022/05/14 12:43:16;;;;;;;2.03;1.92;;;22.30;94.20;;;;;;5052655;28;20240;-68
2022/05/14 12:46:10;;;;;;;0.57;0.55;;;22.20;93.80;;;;;;5051941;28;20205;-68
2022/05/14 12:48:58;;;;;;;0.73;0.70;;;21.80;94.50;;;;;;5052260;28;20260;-70
2022/05/14 12:51:51;;;;;;;0.60;0.60;;;21.60;94.70;;;;;;5052445;28;20694;-68
2022/05/14 12:54:48;;;;;;;1.67;1.13;;;22.00;95.00;;;;;;5052928;28;20208;-68
2022/05/14 12:57:38;;;;;;;1.38;1.20;;;22.60;94.20;;;;;;5052347;28;20790;-68
2022/05/14 13:00:26;;;;;;;0.50;0.50;;;23.40;93.30;;;;;;5053308;28;20210;-69
2022/05/14 13:03:22;;;;;;;1.08;1.08;;;22.90;92.30;;;;;;5051901;28;20217;-70
2022/05/14 13:06:16;;;;;;;1.88;1.23;;;22.50;92.80;;;;;;5052701;28;20670;-68
2022/05/14 13:09:09;;;;;;;0.60;0.60;;;22.40;92.80;;;;;;5052315;28;20594;-68
2022/05/14 13:11:59;;;;;;;0.40;0.40;;;24.20;92.20;;;;;;5052219;28;20292;-69
2022/05/14 13:14:51;;;;;;;0.70;0.70;;;26.30;90.60;;;;;;5052046;28;20604;-66
2022/05/14 13:17:41;;;;;;;0.40;0.40;;;28.30;84.30;;;;;;5051357;28;20217;-68
2022/05/14 13:20:31;;;;;;;3.20;1.20;;;27.90;82.30;;;;;;5053031;28;20217;-69
2022/05/14 13:23:21;;;;;;;0.80;0.80;;;26.20;83.20;;;;;;5053358;28;20632;-69
2022/05/14 13:26:12;;;;;;;0.60;0.60;;;25.30;84.90;;;;;;5051813;28;20206;-70
2022/05/14 13:29:14;;;;;;;1.45;0.80;;;26.00;83.50;;;;;;5052646;28;20225;-69
2022/05/14 13:32:27;;;;;;;0.63;0.63;;;26.60;81.40;;;;;;5052326;28;20217;-69
2022/05/14 13:38:33;;;;;;;1.67;1.52;;;25.80;81.00;;;;;;5000793;28;20239;-69
2022/05/14 13:41:25;;;;;;;1.15;0.80;;;24.80;82.30;;;;;;5034010;28;20198;-68
2022/05/14 13:44:18;;;;;;;0.60;0.60;;;24.40;82.80;;;;;;5033678;28;20226;-67
2022/05/14 13:47:09;;;;;;;1.58;0.95;;;24.50;83.70;;;;;;5032030;28;20674;-67
2022/05/14 13:49:59;;;;;;;0.77;0.77;;;24.50;82.40;;;;;;5033157;28;20249;-68
2022/05/14 13:52:52;;;;;;;0.70;0.70;;;24.10;83.40;;;;;;5032381;28;20717;-69
2022/05/14 13:55:42;;;;;;;0.55;0.52;;;23.80;83.90;;;;;;5031338;28;20234;-68
2022/05/14 13:58:32;;;;;;;1.02;0.80;;;23.60;84.10;;;;;;5031321;28;20202;-69
2022/05/14 14:01:26;;;;;;;1.45;1.27;;;23.10;84.60;;;;;;5032614;28;20194;-70
2022/05/14 14:04:17;;;;;;;3.70;2.05;;;22.70;85.70;;;;;;5031514;28;20650;-70
2022/05/14 14:07:08;;;;;;;1.33;1.10;;;22.70;86.80;;;;;;5031688;28;20209;-68
2022/05/14 14:09:56;;;;;;;0.40;0.40;;;22.80;86.70;;;;;;5031445;28;20627;-68
2022/05/14 14:12:47;;;;;;;0.40;0.40;;;22.60;87.20;;;;;;5031918;28;20221;-71
2022/05/14 14:15:38;;;;;;;2.47;1.02;;;22.70;87.20;;;;;;5031365;28;20303;-70
2022/05/14 14:18:27;;;;;;;2.60;0.95;;;22.80;86.30;;;;;;5032415;28;20206;-69
2022/05/14 14:21:16;;;;;;;1.73;1.08;;;22.60;85.70;;;;;;5030634;28;20618;-70
2022/05/14 14:24:09;;;;;;;0.63;0.63;;;24.00;83.50;;;;;;5032646;28;20320;-68
2022/05/14 14:26:58;;;;;;;6.07;0.85;;;25.20;82.30;;;;;;5032155;28;20206;-69
2022/05/14 14:29:47;;;;;;;1.10;1.05;;;25.40;81.50;;;;;;5033327;28;20697;-69
2022/05/14 14:32:35;;;;;;;5.50;1.50;;;24.90;81.90;;;;;;5032619;28;20226;-70
2022/05/14 14:35:23;;;;;;;0.50;0.50;;;24.20;81.70;;;;;;5032374;28;20577;-67
2022/05/14 14:38:12;;;;;;;2.60;0.85;;;23.90;83.10;;;;;;5071376;28;20283;-68
2022/05/14 14:41:00;;;;;;;0.65;0.65;;;25.40;81.60;;;;;;5044838;28;20206;-68
2022/05/14 14:43:49;;;;;;;6.95;0.95;;;26.90;78.90;;;;;;5029788;28;20225;-68
2022/05/14 14:46:39;;;;;;;0.60;0.60;;;27.70;75.60;;;;;;5029333;28;20691;-67
2022/05/14 14:49:27;;;;;;;0.40;0.40;;;26.90;76.50;;;;;;5029504;28;20784;-67
2022/05/14 14:52:15;;;;;;;0.40;0.40;;;27.70;75.30;;;;;;5030269;28;20221;-68
2022/05/14 14:55:05;;;;;;;0.40;0.40;;;27.70;74.10;;;;;;5029543;28;20202;-67
2022/05/14 14:57:53;;;;;;;1.20;0.88;;;27.60;73.30;;;;;;5029449;28;20207;-68
2022/05/14 15:00:47;;;;;;;0.40;0.40;;;27.40;73.50;;;;;;5030150;28;20689;-68
2022/05/14 15:03:39;;;;;;;0.93;0.82;;;27.90;73.30;;;;;;5031242;28;20222;-68
2022/05/14 15:06:28;;;;;;;2.25;0.75;;;27.00;72.50;;;;;;5033176;28;20285;-68
2022/05/14 15:09:16;;;;;;;0.77;0.77;;;25.60;74.90;;;;;;5034467;28;20347;-68
2022/05/14 15:12:04;;;;;;;0.40;0.40;;;24.30;77.40;;;;;;5034252;28;20250;-67
2022/05/14 15:14:52;;;;;;;0.70;0.50;;;25.40;78.30;;;;;;5033111;28;20197;-67
2022/05/14 15:17:41;;;;;;;0.50;0.50;;;28.00;73.80;;;;;;5032693;28;20630;-67
2022/05/14 15:20:31;;;;;;;3.80;1.63;;;30.10;70.00;;;;;;5033591;28;20197;-67
2022/05/14 15:23:20;;;;;;;0.50;0.50;;;29.60;68.10;;;;;;5032596;28;20734;-68